createdAt,value
2019-05-26T00:02:57.597Z,10.60
2019-05-26T00:05:59.204Z,10.50
2019-05-26T00:09:00.432Z,10.40
2019-05-26T00:12:01.964Z,10.40
2019-05-26T00:15:05.960Z,10.40
2019-05-26T00:18:07.397Z,10.30
2019-05-26T00:21:08.641Z,10.20
2019-05-26T00:24:10.320Z,10.20
2019-05-26T00:27:11.670Z,10.20
2019-05-26T00:30:13.027Z,10.10
2019-05-26T00:33:14.278Z,10.10
2019-05-26T00:36:16.173Z,10.10
2019-05-26T00:39:17.385Z,10.10
2019-05-26T00:42:18.828Z,10.10
2019-05-26T00:45:20.076Z,10.10
2019-05-26T00:48:21.477Z,10.10
2019-05-26T00:51:23.445Z,10.10
2019-05-26T00:54:24.998Z,10.10
2019-05-26T00:57:26.237Z,10.10
2019-05-26T01:00:38.886Z,10.00
2019-05-26T01:03:40.116Z,10.00
2019-05-26T01:06:41.367Z,10.10
2019-05-26T01:09:42.849Z,10.20
2019-05-26T01:12:44.060Z,10.10
2019-05-26T01:15:45.326Z,10.10
2019-05-26T01:18:46.557Z,10.10
2019-05-26T01:21:47.829Z,10.10
2019-05-26T01:24:49.057Z,10.10
2019-05-26T01:27:50.504Z,10.20
2019-05-26T01:30:51.741Z,10.20
2019-05-26T01:33:53.183Z,10.10
2019-05-26T01:36:54.525Z,10.10
2019-05-26T01:39:55.765Z,10.00
2019-05-26T01:42:57.137Z,10.00
2019-05-26T01:45:58.365Z,10.00
2019-05-26T01:48:59.742Z,10.10
2019-05-26T01:52:01.360Z,10.10
2019-05-26T01:55:04.761Z,10.10
2019-05-26T01:58:05.998Z,10.00
2019-05-26T02:01:07.314Z,10.00
2019-05-26T02:04:08.713Z,9.90
2019-05-26T02:07:10.436Z,9.80
2019-05-26T02:10:11.683Z,9.70
2019-05-26T02:13:13.117Z,9.60
2019-05-26T02:16:14.352Z,9.50
2019-05-26T02:19:15.802Z,9.40
2019-05-26T02:22:17.048Z,9.30
2019-05-26T02:25:18.890Z,9.20
2019-05-26T02:28:20.116Z,9.20
2019-05-26T02:31:21.557Z,9.20
2019-05-26T02:34:22.925Z,9.10
2019-05-26T02:37:24.170Z,9.20
2019-05-26T02:40:25.603Z,9.20
2019-05-26T02:43:26.835Z,9.20
2019-05-26T02:46:28.381Z,9.30
2019-05-26T02:49:29.610Z,9.30
2019-05-26T02:52:32.051Z,9.30
2019-05-26T02:55:33.289Z,9.40
2019-05-26T02:58:34.548Z,9.40
2019-05-26T03:01:35.981Z,9.50
2019-05-26T03:04:37.206Z,9.60
2019-05-26T03:07:44.210Z,9.70
2019-05-26T03:10:45.463Z,9.80
2019-05-26T03:13:46.715Z,9.90
2019-05-26T03:16:48.202Z,9.90
2019-05-26T03:19:49.765Z,10.00
2019-05-26T03:22:50.994Z,10.00
2019-05-26T03:25:52.438Z,10.10
2019-05-26T03:28:53.670Z,10.30
2019-05-26T03:31:55.118Z,10.40
2019-05-26T03:34:56.464Z,10.60
2019-05-26T03:37:57.899Z,10.60
2019-05-26T03:40:59.131Z,10.80
2019-05-26T03:44:00.566Z,10.90
2019-05-26T03:47:01.799Z,10.90
2019-05-26T03:50:06.120Z,10.90
2019-05-26T03:53:07.370Z,11.00
2019-05-26T03:56:08.794Z,11.10
2019-05-26T03:59:10.030Z,11.10
2019-05-26T04:02:11.489Z,11.20
2019-05-26T04:05:12.716Z,11.20
2019-05-26T04:08:14.175Z,11.30
2019-05-26T04:11:15.387Z,11.40
2019-05-26T04:14:16.651Z,11.70
2019-05-26T04:17:17.886Z,11.80
2019-05-26T04:20:19.246Z,12.00
2019-05-26T04:23:20.715Z,12.30
2019-05-26T04:26:22.094Z,12.50
2019-05-26T04:29:23.622Z,12.60
2019-05-26T04:32:24.995Z,12.70
2019-05-26T04:35:26.223Z,12.70
2019-05-26T04:38:27.792Z,12.70
2019-05-26T04:41:29.042Z,12.80
2019-05-26T04:44:30.297Z,13.00
2019-05-26T04:47:31.739Z,13.20
2019-05-26T04:50:33.017Z,13.30
2019-05-26T04:53:35.381Z,13.50
2019-05-26T04:56:36.622Z,13.60
2019-05-26T04:59:37.974Z,13.70
2019-05-26T05:02:39.222Z,13.80
2019-05-26T05:05:40.693Z,14.00
2019-05-26T05:08:41.960Z,14.00
2019-05-26T05:11:43.209Z,14.20
2019-05-26T05:14:44.448Z,14.40
2019-05-26T05:17:46.362Z,14.40
2019-05-26T05:20:47.672Z,14.50
2019-05-26T05:23:49.040Z,14.60
2019-05-26T05:26:50.283Z,14.80
2019-05-26T05:29:51.913Z,15.10
2019-05-26T05:32:53.182Z,15.50
2019-05-26T05:35:54.669Z,15.80
2019-05-26T05:38:55.960Z,15.90
2019-05-26T05:41:57.397Z,16.10
2019-05-26T05:44:59.088Z,16.30
2019-05-26T05:48:00.442Z,16.50
2019-05-26T05:51:01.886Z,16.70
2019-05-26T05:54:03.947Z,16.80
2019-05-26T05:57:05.570Z,17.10
2019-05-26T06:00:07.757Z,16.80
2019-05-26T06:03:10.741Z,16.60
2019-05-26T06:06:12.513Z,16.30
2019-05-26T06:09:14.208Z,16.20
2019-05-26T06:12:15.592Z,16.10
2019-05-26T06:15:17.745Z,16.10
2019-05-26T06:18:19.141Z,16.20
2019-05-26T06:21:20.890Z,16.40
2019-05-26T06:24:22.174Z,16.60
2019-05-26T06:27:23.448Z,16.80
2019-05-26T06:30:24.716Z,16.80
2019-05-26T06:33:26.175Z,16.80
2019-05-26T06:36:27.426Z,16.70
2019-05-26T06:39:28.972Z,16.70
2019-05-26T06:45:55.118Z,16.60
2019-05-26T06:48:56.418Z,16.70
2019-05-26T06:51:57.761Z,16.70
2019-05-26T06:54:59.128Z,16.80
2019-05-26T06:58:00.866Z,16.90
2019-05-26T07:01:02.320Z,16.80
2019-05-26T07:04:03.820Z,16.90
2019-05-26T07:07:05.070Z,16.90
2019-05-26T07:10:07.153Z,16.80
2019-05-26T07:13:08.419Z,16.90
2019-05-26T07:16:10.756Z,17.00
2019-05-26T07:19:11.993Z,17.10
2019-05-26T07:22:13.494Z,17.10
2019-05-26T07:25:15.066Z,17.10
2019-05-26T07:28:16.663Z,17.30
2019-05-26T07:31:18.175Z,17.40
2019-05-26T07:34:19.427Z,17.60
2019-05-26T07:37:21.030Z,17.60
2019-05-26T07:40:22.592Z,17.70
2019-05-26T07:43:27.877Z,17.70
2019-05-26T07:46:28.638Z,17.70
2019-05-26T07:49:29.918Z,17.80
2019-05-26T07:52:34.102Z,17.90
2019-05-26T07:55:35.710Z,17.80
2019-05-26T07:58:37.089Z,18.00
2019-05-26T08:01:38.566Z,18.30
2019-05-26T08:04:39.864Z,18.30
2019-05-26T08:07:41.274Z,18.40
2019-05-26T08:10:42.562Z,18.50
2019-05-26T08:13:43.849Z,18.60
2019-05-26T08:16:45.308Z,18.50
2019-05-26T08:19:47.136Z,18.50
2019-05-26T08:22:48.397Z,18.70
2019-05-26T08:25:49.990Z,18.80
2019-05-26T08:28:53.596Z,19.00
2019-05-26T08:31:55.831Z,19.00
2019-05-26T08:34:57.826Z,18.90
2019-05-26T08:38:00.391Z,19.00
2019-05-26T08:41:02.051Z,19.30
2019-05-26T08:44:04.402Z,19.40
2019-05-26T08:47:05.654Z,19.70
2019-05-26T08:50:07.368Z,20.10
2019-05-26T08:53:08.821Z,20.40
2019-05-26T08:56:10.954Z,20.70
2019-05-26T08:59:12.764Z,20.90
2019-05-26T09:02:15.047Z,21.00
2019-05-26T09:05:16.408Z,21.10
2019-05-26T09:08:18.208Z,21.00
2019-05-26T09:11:20.061Z,21.10
2019-05-26T09:14:21.555Z,20.90
2019-05-26T09:17:22.802Z,20.60
2019-05-26T09:20:24.714Z,20.30
2019-05-26T09:23:26.461Z,20.20
2019-05-26T09:26:27.861Z,20.30
2019-05-26T09:29:29.383Z,20.20
2019-05-26T09:32:30.885Z,19.70
2019-05-26T09:35:32.129Z,19.70
2019-05-26T09:38:33.427Z,19.70
2019-05-26T09:41:35.442Z,19.70
2019-05-26T09:44:36.949Z,20.10
2019-05-26T09:47:39.120Z,20.40
2019-05-26T09:50:40.609Z,20.60
2019-05-26T09:53:42.382Z,20.80
2019-05-26T09:56:44.657Z,21.00
2019-05-26T09:59:46.493Z,21.00
2019-05-26T10:02:47.949Z,21.00
2019-05-26T10:05:49.257Z,21.00
2019-05-26T10:08:50.825Z,21.20
2019-05-26T10:11:52.361Z,21.40
2019-05-26T10:14:53.662Z,21.60
2019-05-26T10:17:55.232Z,21.80
2019-05-26T10:20:56.533Z,21.70
2019-05-26T10:23:58.046Z,21.70
2019-05-26T10:26:59.304Z,21.70
2019-05-26T10:30:00.657Z,21.60
2019-05-26T10:33:01.890Z,21.60
2019-05-26T10:36:03.459Z,21.90
2019-05-26T10:39:06.498Z,21.90
2019-05-26T10:42:07.747Z,21.90
2019-05-26T10:45:09.323Z,22.20
2019-05-26T10:48:12.469Z,22.30
2019-05-26T10:51:13.720Z,22.60
2019-05-26T10:54:14.993Z,22.80
2019-05-26T10:57:16.716Z,23.00
2019-05-26T11:00:17.967Z,22.80
2019-05-26T11:03:19.418Z,22.70
2019-05-26T11:06:20.647Z,22.20
2019-05-26T11:09:22.089Z,22.30
2019-05-26T11:12:23.705Z,22.60
2019-05-26T11:15:25.093Z,22.50
2019-05-26T11:18:26.349Z,22.20
2019-05-26T11:21:28.027Z,22.20
2019-05-26T11:24:29.277Z,22.90
2019-05-26T11:27:30.744Z,23.80
2019-05-26T11:30:31.999Z,24.30
2019-05-26T11:33:33.580Z,24.60
2019-05-26T11:36:34.912Z,24.90
2019-05-26T11:39:36.177Z,24.80
2019-05-26T11:42:37.429Z,24.60
2019-05-26T11:45:38.905Z,24.80
2019-05-26T11:48:40.830Z,25.10
2019-05-26T11:51:42.394Z,25.50
2019-05-26T11:54:43.639Z,25.80
2019-05-26T11:57:44.881Z,26.10
2019-05-26T12:00:46.169Z,26.30
2019-05-26T12:03:47.611Z,26.50
2019-05-26T12:06:48.854Z,26.60
2019-05-26T12:09:50.115Z,26.70
2019-05-26T12:12:51.386Z,26.00
2019-05-26T12:15:52.936Z,26.30
2019-05-26T12:18:54.353Z,26.20
2019-05-26T12:21:55.760Z,26.20
2019-05-26T12:24:57.017Z,26.60
2019-05-26T12:27:58.461Z,27.30
2019-05-26T12:30:59.755Z,28.10
2019-05-26T12:34:01.170Z,28.50
2019-05-26T12:37:02.517Z,29.00
2019-05-26T12:40:06.666Z,29.00
2019-05-26T12:43:07.997Z,28.70
2019-05-26T12:46:09.273Z,28.20
2019-05-26T12:49:10.581Z,28.70
2019-05-26T12:52:13.287Z,29.10
2019-05-26T12:55:15.157Z,29.70
2019-05-26T12:58:16.670Z,30.50
2019-05-26T13:01:17.890Z,30.70
2019-05-26T13:04:20.123Z,30.10
2019-05-26T13:07:21.358Z,29.50
2019-05-26T13:10:23.051Z,29.10
2019-05-26T13:13:24.354Z,29.00
2019-05-26T13:16:26.163Z,29.30
2019-05-26T13:19:27.377Z,28.60
2019-05-26T13:22:29.029Z,28.30
2019-05-26T13:25:30.268Z,28.00
2019-05-26T13:28:31.525Z,27.60
2019-05-26T13:31:32.975Z,28.10
2019-05-26T13:34:35.805Z,27.50
2019-05-26T13:37:37.469Z,27.70
2019-05-26T13:40:38.936Z,28.50
2019-05-26T13:43:40.916Z,29.00
2019-05-26T13:46:42.889Z,28.10
2019-05-26T13:49:44.780Z,26.90
2019-05-26T13:52:46.535Z,27.10
2019-05-26T13:55:49.396Z,27.00
2019-05-26T13:58:51.183Z,26.80
2019-05-26T14:01:52.469Z,27.70
2019-05-26T14:04:53.901Z,28.30
2019-05-26T14:07:55.527Z,28.00
2019-05-26T14:10:56.882Z,28.20
2019-05-26T14:13:58.618Z,28.40
2019-05-26T14:16:59.866Z,28.40
2019-05-26T14:20:02.814Z,28.20
2019-05-26T14:23:05.496Z,26.90
2019-05-26T14:26:06.730Z,26.60
2019-05-26T14:29:08.084Z,27.20
2019-05-26T14:32:09.869Z,27.80
2019-05-26T14:35:11.137Z,28.40
2019-05-26T14:38:12.786Z,29.20
2019-05-26T14:41:14.222Z,28.80
2019-05-26T14:44:15.718Z,29.00
2019-05-26T14:47:17.003Z,29.30
2019-05-26T14:50:18.400Z,29.90
2019-05-26T14:53:20.158Z,30.10
2019-05-26T14:56:22.334Z,31.40
2019-05-26T14:59:24.211Z,30.90
2019-05-26T15:02:25.447Z,30.40
2019-05-26T15:05:27.138Z,29.80
2019-05-26T15:08:28.422Z,30.40
2019-05-26T15:11:29.788Z,30.80
2019-05-26T15:14:31.025Z,31.40
2019-05-26T15:17:32.389Z,31.10
2019-05-26T15:20:33.647Z,31.30
2019-05-26T15:23:35.030Z,31.10
2019-05-26T15:26:36.279Z,30.90
2019-05-26T15:29:37.525Z,30.20
2019-05-26T15:32:38.931Z,29.70
2019-05-26T15:35:44.829Z,29.90
2019-05-26T15:38:46.090Z,29.90
2019-05-26T15:41:47.359Z,30.50
2019-05-26T15:44:55.148Z,29.80
2019-05-26T15:47:56.492Z,28.60
2019-05-26T15:51:01.002Z,27.10
2019-05-26T15:54:02.722Z,26.30
2019-05-26T15:57:05.728Z,25.60
2019-05-26T16:00:08.720Z,25.00
2019-05-26T16:03:10.143Z,24.80
2019-05-26T16:06:15.017Z,24.70
2019-05-26T16:09:19.456Z,24.50
2019-05-26T16:12:21.453Z,24.90
2019-05-26T16:15:26.363Z,25.20
2019-05-26T16:18:28.078Z,25.30
2019-05-26T16:21:32.909Z,25.60
2019-05-26T16:24:36.359Z,26.20
2019-05-26T16:27:40.914Z,26.80
2019-05-26T16:30:42.927Z,27.00
2019-05-26T16:33:45.330Z,27.20
2019-05-26T16:36:48.407Z,27.20
2019-05-26T16:39:50.829Z,27.40
2019-05-26T16:42:52.526Z,27.60
2019-05-26T16:45:56.471Z,28.60
2019-05-26T16:48:57.079Z,29.20
2019-05-26T16:51:58.405Z,29.70
2019-05-26T16:54:59.720Z,29.90
2019-05-26T16:58:01.577Z,29.50
2019-05-26T17:01:02.863Z,30.40
2019-05-26T17:04:04.325Z,29.90
2019-05-26T17:07:07.076Z,28.80
2019-05-26T17:10:08.329Z,27.60
2019-05-26T17:13:10.194Z,26.90
2019-05-26T17:16:11.452Z,25.80
2019-05-26T17:19:13.751Z,25.30
2019-05-26T17:22:15.891Z,24.60
2019-05-26T17:25:18.637Z,23.90
2019-05-26T17:28:20.767Z,23.40
2019-05-26T17:31:23.089Z,23.00
2019-05-26T17:34:25.615Z,22.60
2019-05-26T17:37:28.755Z,22.30
2019-05-26T17:40:31.522Z,22.00
2019-05-26T17:43:34.097Z,21.60
2019-05-26T17:46:36.145Z,21.20
2019-05-26T17:49:40.632Z,20.90
2019-05-26T17:52:42.858Z,20.60
2019-05-26T17:55:45.257Z,20.40
2019-05-26T17:58:48.418Z,20.10
2019-05-26T18:01:53.151Z,19.80
2019-05-26T18:04:55.108Z,19.60
2019-05-26T18:07:56.389Z,19.30
2019-05-26T18:10:57.833Z,19.00
2019-05-26T18:14:00.197Z,18.70
2019-05-26T18:17:02.589Z,18.40
2019-05-26T18:20:07.751Z,18.20
2019-05-26T18:23:09.449Z,17.90
2019-05-26T18:26:10.745Z,17.60
2019-05-26T18:29:12.256Z,17.40
2019-05-26T18:32:13.567Z,17.20
2019-05-26T18:35:15.065Z,17.00
2019-05-26T18:38:16.438Z,16.70
2019-05-26T18:41:20.803Z,16.50
2019-05-26T18:44:22.226Z,16.30
2019-05-26T18:47:23.849Z,16.10
2019-05-26T18:50:25.647Z,15.90
2019-05-26T18:53:29.643Z,15.90
2019-05-26T18:56:30.631Z,15.70
2019-05-26T18:59:32.534Z,15.60
2019-05-26T19:02:34.204Z,15.50
2019-05-26T19:05:38.314Z,15.40
2019-05-26T19:08:40.846Z,15.30
2019-05-26T19:11:42.072Z,15.20
2019-05-26T19:14:43.592Z,15.10
2019-05-26T19:17:44.823Z,15.00
2019-05-26T19:20:46.560Z,15.00
2019-05-26T19:23:47.824Z,14.90
2019-05-26T19:26:51.407Z,14.80
2019-05-26T19:29:52.562Z,14.80
2019-05-26T19:32:53.813Z,14.70
2019-05-26T19:35:55.630Z,14.70
2019-05-26T19:38:58.451Z,14.60
2019-05-26T19:42:00.306Z,14.50
2019-05-26T19:45:04.663Z,14.40
2019-05-26T19:48:05.943Z,14.30
2019-05-26T19:51:10.446Z,14.20
2019-05-26T19:54:11.910Z,14.20
2019-05-26T19:57:13.647Z,14.10
2019-05-26T20:00:16.614Z,14.00
2019-05-26T20:03:20.759Z,13.90
2019-05-26T20:06:22.364Z,13.90
2019-05-26T20:09:24.142Z,13.90
2019-05-26T20:12:26.376Z,13.80
2019-05-26T20:15:30.169Z,13.80
2019-05-26T20:18:32.475Z,13.80
2019-05-26T20:21:34.459Z,13.80
2019-05-26T20:24:35.739Z,13.70
2019-05-26T20:27:39.366Z,13.60
2019-05-26T20:30:40.751Z,13.50
2019-05-26T20:33:43.081Z,13.50
2019-05-26T20:36:44.313Z,13.50
2019-05-26T20:39:46.256Z,13.50
2019-05-26T20:42:51.677Z,13.40
2019-05-26T20:45:57.070Z,13.40
2019-05-26T20:48:58.568Z,13.30
2019-05-26T20:52:02.475Z,13.10
2019-05-26T20:55:06.210Z,13.10
2019-05-26T20:58:08.505Z,13.00
2019-05-26T21:01:09.945Z,13.00
2019-05-26T21:04:11.627Z,13.00
2019-05-26T21:07:14.052Z,13.00
2019-05-26T21:10:16.360Z,12.90
2019-05-26T21:13:18.765Z,12.80
2019-05-26T21:16:20.355Z,12.80
2019-05-26T21:19:24.329Z,12.70
2019-05-26T21:22:26.818Z,12.70
2019-05-26T21:25:29.415Z,12.60
2019-05-26T21:28:30.823Z,12.60
2019-05-26T21:31:32.967Z,12.60
2019-05-26T21:34:34.270Z,12.60
2019-05-26T21:37:36.243Z,12.50
2019-05-26T21:40:38.164Z,12.50
2019-05-26T21:43:40.558Z,12.50
2019-05-26T21:46:41.839Z,12.50
2019-05-26T21:49:43.718Z,12.60
2019-05-26T21:52:45.534Z,12.60
2019-05-26T21:55:47.725Z,12.60
2019-05-26T21:58:50.439Z,12.60
2019-05-26T22:01:53.018Z,12.50
2019-05-26T22:04:54.860Z,12.50
2019-05-26T22:07:56.488Z,12.50
2019-05-26T22:10:57.952Z,12.50
2019-05-26T22:13:59.378Z,12.40
2019-05-26T22:17:00.633Z,12.40
2019-05-26T22:20:03.769Z,12.30
2019-05-26T22:23:05.277Z,12.30
2019-05-26T22:26:07.120Z,12.30
2019-05-26T22:29:08.749Z,12.20
2019-05-26T22:32:10.121Z,12.20
2019-05-26T22:35:11.786Z,12.10
2019-05-26T22:38:13.305Z,12.10
2019-05-26T22:41:14.605Z,12.10
2019-05-26T22:44:16.774Z,12.10
2019-05-26T22:47:18.001Z,12.10
2019-05-26T22:50:19.710Z,12.00
2019-05-26T22:53:20.996Z,12.00
2019-05-26T22:56:22.391Z,11.90
2019-05-26T22:59:23.650Z,11.90
2019-05-26T23:02:25.107Z,11.90
2019-05-26T23:05:26.326Z,11.90
2019-05-26T23:08:27.768Z,11.90
2019-05-26T23:11:29.109Z,11.80
2019-05-26T23:14:30.713Z,11.90
2019-05-26T23:17:31.935Z,11.80
2019-05-26T23:20:33.478Z,11.80
2019-05-26T23:23:35.513Z,11.80
2019-05-26T23:26:36.745Z,11.80
2019-05-26T23:29:38.171Z,11.70
2019-05-26T23:32:39.397Z,11.70
2019-05-26T23:35:40.833Z,11.70
2019-05-26T23:38:42.078Z,11.60
2019-05-26T23:41:43.749Z,11.60
2019-05-26T23:44:44.982Z,11.60
2019-05-26T23:47:46.240Z,11.60
2019-05-26T23:50:48.741Z,11.60
2019-05-26T23:53:49.938Z,11.50
2019-05-26T23:56:52.043Z,11.50
2019-05-26T23:59:54.961Z,11.50
